sensor_id;sensor_type;location;lat;lon;timestamp;temperature;humidity
8436;DHT22;4255;48.730;9.156;2023-11-21T00:02:03;10.00;99.90
8436;DHT22;4255;48.730;9.156;2023-11-21T00:04:29;10.10;99.90
8436;DHT22;4255;48.730;9.156;2023-11-21T00:06:55;10.10;99.90
8436;DHT22;4255;48.730;9.156;2023-11-21T00:09:21;10.00;99.90
8436;DHT22;4255;48.730;9.156;2023-11-21T00:11:47;10.00;99.90
8436;DHT22;4255;48.730;9.156;2023-11-21T00:14:13;10.00;99.90
8436;DHT22;4255;48.730;9.156;2023-11-21T00:16:41;10.00;99.90
8436;DHT22;4255;48.730;9.156;2023-11-21T00:19:07;10.10;99.90
8436;DHT22;4255;48.730;9.156;2023-11-21T00:21:33;9.90;99.90
8436;DHT22;4255;48.730;9.156;2023-11-21T00:23:58;9.80;99.90
8436;DHT22;4255;48.730;9.156;2023-11-21T00:26:24;9.70;99.90
8436;DHT22;4255;48.730;9.156;2023-11-21T00:28:50;9.60;99.90
8436;DHT22;4255;48.730;9.156;2023-11-21T00:31:16;9.60;99.90
8436;DHT22;4255;48.730;9.156;2023-11-21T00:33:42;9.40;99.90
8436;DHT22;4255;48.730;9.156;2023-11-21T00:36:08;9.40;99.90
8436;DHT22;4255;48.730;9.156;2023-11-21T00:38:37;9.40;99.90
8436;DHT22;4255;48.730;9.156;2023-11-21T00:41:06;9.30;99.90
8436;DHT22;4255;48.730;9.156;2023-11-21T00:43:31;9.30;99.90
8436;DHT22;4255;48.730;9.156;2023-11-21T00:45:58;9.10;99.90
8436;DHT22;4255;48.730;9.156;2023-11-21T00:48:24;9.20;99.90
8436;DHT22;4255;48.730;9.156;2023-11-21T00:50:49;9.10;99.90
8436;DHT22;4255;48.730;9.156;2023-11-21T00:53:15;9.00;99.90
8436;DHT22;4255;48.730;9.156;2023-11-21T00:55:41;9.10;99.90
8436;DHT22;4255;48.730;9.156;2023-11-21T00:58:07;9.10;99.90
8436;DHT22;4255;48.730;9.156;2023-11-21T01:00:35;9.00;99.90
8436;DHT22;4255;48.730;9.156;2023-11-21T01:03:01;9.00;99.90
8436;DHT22;4255;48.730;9.156;2023-11-21T01:05:27;8.90;99.90
8436;DHT22;4255;48.730;9.156;2023-11-21T01:07:53;8.90;99.90
8436;DHT22;4255;48.730;9.156;2023-11-21T01:10:18;9.00;99.90
8436;DHT22;4255;48.730;9.156;2023-11-21T01:12:44;8.90;99.90
8436;DHT22;4255;48.730;9.156;2023-11-21T01:15:10;8.90;99.90
8436;DHT22;4255;48.730;9.156;2023-11-21T01:17:37;8.80;99.90
8436;DHT22;4255;48.730;9.156;2023-11-21T01:20:04;8.80;99.90
8436;DHT22;4255;48.730;9.156;2023-11-21T01:22:37;8.90;99.90
8436;DHT22;4255;48.730;9.156;2023-11-21T01:25:04;9.00;99.90
8436;DHT22;4255;48.730;9.156;2023-11-21T01:27:32;9.00;99.90
8436;DHT22;4255;48.730;9.156;2023-11-21T01:29:58;9.20;99.90
8436;DHT22;4255;48.730;9.156;2023-11-21T01:32:23;9.30;99.90
8436;DHT22;4255;48.730;9.156;2023-11-21T01:34:50;9.30;99.90
8436;DHT22;4255;48.730;9.156;2023-11-21T01:37:16;9.30;99.90
8436;DHT22;4255;48.730;9.156;2023-11-21T01:39:43;9.30;99.90
8436;DHT22;4255;48.730;9.156;2023-11-21T01:42:10;9.40;99.90
8436;DHT22;4255;48.730;9.156;2023-11-21T01:44:38;9.50;99.90
8436;DHT22;4255;48.730;9.156;2023-11-21T01:47:07;9.50;99.90
8436;DHT22;4255;48.730;9.156;2023-11-21T01:49:33;9.60;99.90
8436;DHT22;4255;48.730;9.156;2023-11-21T01:51:59;9.50;99.90
8436;DHT22;4255;48.730;9.156;2023-11-21T01:54:25;9.40;99.90
8436;DHT22;4255;48.730;9.156;2023-11-21T01:56:51;9.50;99.90
8436;DHT22;4255;48.730;9.156;2023-11-21T01:59:20;9.40;99.90
8436;DHT22;4255;48.730;9.156;2023-11-21T02:01:47;9.50;99.90
8436;DHT22;4255;48.730;9.156;2023-11-21T02:04:13;9.40;99.90
8436;DHT22;4255;48.730;9.156;2023-11-21T02:06:39;9.50;99.90
8436;DHT22;4255;48.730;9.156;2023-11-21T02:09:05;9.50;99.90
8436;DHT22;4255;48.730;9.156;2023-11-21T02:11:31;9.60;99.90
8436;DHT22;4255;48.730;9.156;2023-11-21T02:13:59;9.50;99.90
8436;DHT22;4255;48.730;9.156;2023-11-21T02:16:24;9.60;99.90
8436;DHT22;4255;48.730;9.156;2023-11-21T02:18:51;9.60;99.90
8436;DHT22;4255;48.730;9.156;2023-11-21T02:21:17;9.60;99.90
8436;DHT22;4255;48.730;9.156;2023-11-21T02:23:44;9.80;99.90
8436;DHT22;4255;48.730;9.156;2023-11-21T02:26:12;9.80;99.90
8436;DHT22;4255;48.730;9.156;2023-11-21T02:28:39;9.80;99.90
8436;DHT22;4255;48.730;9.156;2023-11-21T02:31:05;9.90;99.90
8436;DHT22;4255;48.730;9.156;2023-11-21T02:33:31;9.90;99.90
8436;DHT22;4255;48.730;9.156;2023-11-21T02:36:05;9.70;99.90
8436;DHT22;4255;48.730;9.156;2023-11-21T02:38:31;9.60;99.90
8436;DHT22;4255;48.730;9.156;2023-11-21T02:40:57;9.60;99.90
8436;DHT22;4255;48.730;9.156;2023-11-21T02:43:24;9.50;99.90
8436;DHT22;4255;48.730;9.156;2023-11-21T02:45:50;9.50;99.90
8436;DHT22;4255;48.730;9.156;2023-11-21T02:48:16;9.50;99.90
8436;DHT22;4255;48.730;9.156;2023-11-21T02:50:41;9.50;99.90
8436;DHT22;4255;48.730;9.156;2023-11-21T02:53:08;9.40;99.90
8436;DHT22;4255;48.730;9.156;2023-11-21T02:55:36;9.40;99.90
8436;DHT22;4255;48.730;9.156;2023-11-21T02:58:02;9.30;99.90
8436;DHT22;4255;48.730;9.156;2023-11-21T03:00:29;9.20;99.90
8436;DHT22;4255;48.730;9.156;2023-11-21T03:02:55;9.10;99.90
8436;DHT22;4255;48.730;9.156;2023-11-21T03:05:21;9.20;99.90
8436;DHT22;4255;48.730;9.156;2023-11-21T03:07:47;9.30;99.90
8436;DHT22;4255;48.730;9.156;2023-11-21T03:10:12;9.30;99.90
8436;DHT22;4255;48.730;9.156;2023-11-21T03:12:39;9.50;99.90
8436;DHT22;4255;48.730;9.156;2023-11-21T03:15:06;9.60;99.90
8436;DHT22;4255;48.730;9.156;2023-11-21T03:17:31;9.50;99.90
8436;DHT22;4255;48.730;9.156;2023-11-21T03:19:59;9.40;99.90
8436;DHT22;4255;48.730;9.156;2023-11-21T03:22:25;9.20;99.90
8436;DHT22;4255;48.730;9.156;2023-11-21T03:24:51;9.30;99.90
8436;DHT22;4255;48.730;9.156;2023-11-21T03:27:18;9.30;99.90
8436;DHT22;4255;48.730;9.156;2023-11-21T03:29:44;9.30;99.90
8436;DHT22;4255;48.730;9.156;2023-11-21T03:32:10;9.40;99.90
8436;DHT22;4255;48.730;9.156;2023-11-21T03:34:53;9.50;99.90
8436;DHT22;4255;48.730;9.156;2023-11-21T03:37:19;9.50;99.90
8436;DHT22;4255;48.730;9.156;2023-11-21T03:39:46;9.40;99.90
8436;DHT22;4255;48.730;9.156;2023-11-21T03:42:12;9.50;99.90
8436;DHT22;4255;48.730;9.156;2023-11-21T03:44:38;9.60;99.90
8436;DHT22;4255;48.730;9.156;2023-11-21T03:47:03;9.70;99.90
8436;DHT22;4255;48.730;9.156;2023-11-21T03:49:29;9.80;99.90
8436;DHT22;4255;48.730;9.156;2023-11-21T03:51:55;9.90;99.90
8436;DHT22;4255;48.730;9.156;2023-11-21T03:54:21;9.90;99.90
8436;DHT22;4255;48.730;9.156;2023-11-21T03:56:47;9.80;99.90
8436;DHT22;4255;48.730;9.156;2023-11-21T03:59:12;9.70;99.90
8436;DHT22;4255;48.730;9.156;2023-11-21T04:01:38;9.60;99.90
8436;DHT22;4255;48.730;9.156;2023-11-21T04:04:04;9.60;99.90
8436;DHT22;4255;48.730;9.156;2023-11-21T04:06:29;9.50;99.90
8436;DHT22;4255;48.730;9.156;2023-11-21T04:08:55;9.40;99.90
8436;DHT22;4255;48.730;9.156;2023-11-21T04:11:20;9.40;99.90
8436;DHT22;4255;48.730;9.156;2023-11-21T04:13:46;9.50;99.90
8436;DHT22;4255;48.730;9.156;2023-11-21T04:16:12;9.50;99.90
8436;DHT22;4255;48.730;9.156;2023-11-21T04:18:38;9.60;99.90
8436;DHT22;4255;48.730;9.156;2023-11-21T04:21:07;9.60;99.90
8436;DHT22;4255;48.730;9.156;2023-11-21T04:23:33;9.60;99.90
8436;DHT22;4255;48.730;9.156;2023-11-21T04:25:59;9.60;99.90
8436;DHT22;4255;48.730;9.156;2023-11-21T04:28:25;9.50;99.90
8436;DHT22;4255;48.730;9.156;2023-11-21T04:30:51;9.50;99.90
8436;DHT22;4255;48.730;9.156;2023-11-21T04:33:17;9.30;99.90
8436;DHT22;4255;48.730;9.156;2023-11-21T04:35:42;9.20;99.90
8436;DHT22;4255;48.730;9.156;2023-11-21T04:38:08;9.20;99.90
8436;DHT22;4255;48.730;9.156;2023-11-21T04:40:34;9.10;99.90
8436;DHT22;4255;48.730;9.156;2023-11-21T04:42:59;9.10;99.90
8436;DHT22;4255;48.730;9.156;2023-11-21T04:45:25;9.20;99.90
8436;DHT22;4255;48.730;9.156;2023-11-21T04:47:50;9.20;99.90
8436;DHT22;4255;48.730;9.156;2023-11-21T04:50:18;9.10;99.90
8436;DHT22;4255;48.730;9.156;2023-11-21T04:52:44;9.10;99.90
8436;DHT22;4255;48.730;9.156;2023-11-21T04:55:10;9.00;99.90
8436;DHT22;4255;48.730;9.156;2023-11-21T04:57:39;9.00;99.90
8436;DHT22;4255;48.730;9.156;2023-11-21T05:00:08;9.00;99.90
8436;DHT22;4255;48.730;9.156;2023-11-21T05:02:34;9.00;99.90
8436;DHT22;4255;48.730;9.156;2023-11-21T05:05:00;9.10;99.90
8436;DHT22;4255;48.730;9.156;2023-11-21T05:07:26;9.30;99.90
8436;DHT22;4255;48.730;9.156;2023-11-21T05:09:55;9.30;99.90
8436;DHT22;4255;48.730;9.156;2023-11-21T05:12:24;9.40;99.90
8436;DHT22;4255;48.730;9.156;2023-11-21T05:14:50;9.20;99.90
8436;DHT22;4255;48.730;9.156;2023-11-21T05:17:16;9.30;99.90
8436;DHT22;4255;48.730;9.156;2023-11-21T05:19:41;9.30;99.90
8436;DHT22;4255;48.730;9.156;2023-11-21T05:22:08;9.40;99.90
8436;DHT22;4255;48.730;9.156;2023-11-21T05:24:34;9.20;99.90
8436;DHT22;4255;48.730;9.156;2023-11-21T05:27:00;9.20;99.90
8436;DHT22;4255;48.730;9.156;2023-11-21T05:29:26;9.20;99.90
8436;DHT22;4255;48.730;9.156;2023-11-21T05:31:51;9.20;99.90
8436;DHT22;4255;48.730;9.156;2023-11-21T05:34:18;9.20;99.90
8436;DHT22;4255;48.730;9.156;2023-11-21T05:36:44;9.00;99.90
8436;DHT22;4255;48.730;9.156;2023-11-21T05:39:14;9.00;99.90
8436;DHT22;4255;48.730;9.156;2023-11-21T05:41:39;8.80;99.90
8436;DHT22;4255;48.730;9.156;2023-11-21T05:44:05;8.80;99.90
8436;DHT22;4255;48.730;9.156;2023-11-21T05:46:31;8.80;99.90
8436;DHT22;4255;48.730;9.156;2023-11-21T05:48:56;8.80;99.90
8436;DHT22;4255;48.730;9.156;2023-11-21T05:51:22;8.80;99.90
8436;DHT22;4255;48.730;9.156;2023-11-21T05:53:47;8.90;99.90
8436;DHT22;4255;48.730;9.156;2023-11-21T05:56:13;8.80;99.90
8436;DHT22;4255;48.730;9.156;2023-11-21T05:58:39;8.80;99.90
8436;DHT22;4255;48.730;9.156;2023-11-21T06:01:05;8.80;99.90
8436;DHT22;4255;48.730;9.156;2023-11-21T06:03:33;8.70;99.90
8436;DHT22;4255;48.730;9.156;2023-11-21T06:05:58;8.80;99.90
8436;DHT22;4255;48.730;9.156;2023-11-21T06:08:24;8.70;99.90
8436;DHT22;4255;48.730;9.156;2023-11-21T06:10:50;8.80;99.90
8436;DHT22;4255;48.730;9.156;2023-11-21T06:13:15;8.80;99.90
8436;DHT22;4255;48.730;9.156;2023-11-21T06:15:41;8.90;99.90
8436;DHT22;4255;48.730;9.156;2023-11-21T06:18:07;9.00;99.90
8436;DHT22;4255;48.730;9.156;2023-11-21T06:20:35;9.00;99.90
8436;DHT22;4255;48.730;9.156;2023-11-21T06:23:02;8.90;99.90
8436;DHT22;4255;48.730;9.156;2023-11-21T06:25:29;9.00;99.90
8436;DHT22;4255;48.730;9.156;2023-11-21T06:27:54;9.00;99.90
8436;DHT22;4255;48.730;9.156;2023-11-21T06:30:21;9.10;99.90
8436;DHT22;4255;48.730;9.156;2023-11-21T06:32:48;9.30;99.90
8436;DHT22;4255;48.730;9.156;2023-11-21T06:35:15;9.20;99.90
8436;DHT22;4255;48.730;9.156;2023-11-21T06:37:41;9.30;99.90
8436;DHT22;4255;48.730;9.156;2023-11-21T06:40:07;9.30;99.90
8436;DHT22;4255;48.730;9.156;2023-11-21T06:42:33;9.30;99.90
8436;DHT22;4255;48.730;9.156;2023-11-21T06:45:04;9.30;99.90
8436;DHT22;4255;48.730;9.156;2023-11-21T06:47:29;9.40;99.90
8436;DHT22;4255;48.730;9.156;2023-11-21T06:49:56;9.40;99.90
8436;DHT22;4255;48.730;9.156;2023-11-21T06:52:21;9.50;99.90
8436;DHT22;4255;48.730;9.156;2023-11-21T06:54:48;9.60;99.90
8436;DHT22;4255;48.730;9.156;2023-11-21T06:57:16;9.70;99.90
8436;DHT22;4255;48.730;9.156;2023-11-21T06:59:42;9.70;99.90
8436;DHT22;4255;48.730;9.156;2023-11-21T07:02:08;9.70;99.90
8436;DHT22;4255;48.730;9.156;2023-11-21T07:04:35;9.80;99.90
8436;DHT22;4255;48.730;9.156;2023-11-21T07:07:02;9.60;99.90
8436;DHT22;4255;48.730;9.156;2023-11-21T07:09:27;9.60;99.90
8436;DHT22;4255;48.730;9.156;2023-11-21T07:11:53;9.50;99.90
8436;DHT22;4255;48.730;9.156;2023-11-21T07:14:19;9.60;99.90
8436;DHT22;4255;48.730;9.156;2023-11-21T07:16:46;9.50;99.90
8436;DHT22;4255;48.730;9.156;2023-11-21T07:19:11;9.60;99.90
8436;DHT22;4255;48.730;9.156;2023-11-21T07:21:38;9.60;99.90
8436;DHT22;4255;48.730;9.156;2023-11-21T07:24:08;9.60;99.90
8436;DHT22;4255;48.730;9.156;2023-11-21T07:26:34;9.60;99.90
8436;DHT22;4255;48.730;9.156;2023-11-21T07:29:01;9.60;99.90
8436;DHT22;4255;48.730;9.156;2023-11-21T07:31:28;9.40;99.90
8436;DHT22;4255;48.730;9.156;2023-11-21T07:33:54;9.20;99.90
8436;DHT22;4255;48.730;9.156;2023-11-21T07:36:23;9.10;99.90
8436;DHT22;4255;48.730;9.156;2023-11-21T07:38:49;9.00;99.90
8436;DHT22;4255;48.730;9.156;2023-11-21T07:41:15;9.00;99.90
8436;DHT22;4255;48.730;9.156;2023-11-21T07:43:42;9.20;99.90
8436;DHT22;4255;48.730;9.156;2023-11-21T07:46:08;9.20;99.90
8436;DHT22;4255;48.730;9.156;2023-11-21T07:48:34;9.20;99.90
8436;DHT22;4255;48.730;9.156;2023-11-21T07:51:01;9.30;99.90
8436;DHT22;4255;48.730;9.156;2023-11-21T07:53:29;9.40;99.90
8436;DHT22;4255;48.730;9.156;2023-11-21T07:55:56;9.50;99.90
8436;DHT22;4255;48.730;9.156;2023-11-21T07:58:21;9.60;99.90
8436;DHT22;4255;48.730;9.156;2023-11-21T08:00:47;9.70;99.90
8436;DHT22;4255;48.730;9.156;2023-11-21T08:03:16;9.80;99.90
8436;DHT22;4255;48.730;9.156;2023-11-21T08:05:42;9.90;99.90
8436;DHT22;4255;48.730;9.156;2023-11-21T08:08:08;9.80;99.90
8436;DHT22;4255;48.730;9.156;2023-11-21T08:10:34;9.90;99.90
8436;DHT22;4255;48.730;9.156;2023-11-21T08:13:01;9.80;99.90
8436;DHT22;4255;48.730;9.156;2023-11-21T08:15:27;9.90;99.90
8436;DHT22;4255;48.730;9.156;2023-11-21T08:17:52;10.10;99.90
8436;DHT22;4255;48.730;9.156;2023-11-21T08:20:18;10.10;99.90
8436;DHT22;4255;48.730;9.156;2023-11-21T08:22:44;10.20;99.90
8436;DHT22;4255;48.730;9.156;2023-11-21T08:25:10;10.30;99.90
8436;DHT22;4255;48.730;9.156;2023-11-21T08:27:36;10.30;99.90
8436;DHT22;4255;48.730;9.156;2023-11-21T08:30:05;10.40;99.90
8436;DHT22;4255;48.730;9.156;2023-11-21T08:32:32;10.30;99.90
8436;DHT22;4255;48.730;9.156;2023-11-21T08:34:59;10.30;99.90
8436;DHT22;4255;48.730;9.156;2023-11-21T08:37:25;10.20;99.90
8436;DHT22;4255;48.730;9.156;2023-11-21T08:39:52;10.30;99.90
8436;DHT22;4255;48.730;9.156;2023-11-21T08:42:19;10.30;99.90
8436;DHT22;4255;48.730;9.156;2023-11-21T08:44:44;10.50;99.90
8436;DHT22;4255;48.730;9.156;2023-11-21T08:47:11;10.40;99.90
8436;DHT22;4255;48.730;9.156;2023-11-21T08:49:37;10.60;99.90
8436;DHT22;4255;48.730;9.156;2023-11-21T08:52:03;10.70;99.90
8436;DHT22;4255;48.730;9.156;2023-11-21T08:54:30;10.80;99.90
8436;DHT22;4255;48.730;9.156;2023-11-21T08:56:57;10.90;99.90
8436;DHT22;4255;48.730;9.156;2023-11-21T08:59:24;11.10;99.90
8436;DHT22;4255;48.730;9.156;2023-11-21T09:01:50;11.20;99.90
8436;DHT22;4255;48.730;9.156;2023-11-21T09:04:16;11.10;99.90
8436;DHT22;4255;48.730;9.156;2023-11-21T09:06:41;11.00;99.90
8436;DHT22;4255;48.730;9.156;2023-11-21T09:09:07;11.20;99.90
8436;DHT22;4255;48.730;9.156;2023-11-21T09:11:33;11.20;99.90
8436;DHT22;4255;48.730;9.156;2023-11-21T09:14:00;11.30;99.90
8436;DHT22;4255;48.730;9.156;2023-11-21T09:16:26;11.50;99.90
8436;DHT22;4255;48.730;9.156;2023-11-21T09:18:51;11.60;99.90
8436;DHT22;4255;48.730;9.156;2023-11-21T09:21:17;11.50;99.90
8436;DHT22;4255;48.730;9.156;2023-11-21T09:23:44;11.60;99.90
8436;DHT22;4255;48.730;9.156;2023-11-21T09:26:10;11.70;99.90
8436;DHT22;4255;48.730;9.156;2023-11-21T09:28:35;11.80;99.90
8436;DHT22;4255;48.730;9.156;2023-11-21T09:31:06;11.90;99.90
8436;DHT22;4255;48.730;9.156;2023-11-21T09:33:34;12.00;99.90
8436;DHT22;4255;48.730;9.156;2023-11-21T09:36:00;12.10;99.90
8436;DHT22;4255;48.730;9.156;2023-11-21T09:38:26;12.10;99.90
8436;DHT22;4255;48.730;9.156;2023-11-21T09:40:54;12.00;99.90
8436;DHT22;4255;48.730;9.156;2023-11-21T09:43:21;11.90;99.90
8436;DHT22;4255;48.730;9.156;2023-11-21T09:45:50;12.10;99.90
8436;DHT22;4255;48.730;9.156;2023-11-21T09:48:20;12.30;99.90
8436;DHT22;4255;48.730;9.156;2023-11-21T09:50:47;11.90;99.90
8436;DHT22;4255;48.730;9.156;2023-11-21T09:53:22;11.80;99.90
8436;DHT22;4255;48.730;9.156;2023-11-21T09:55:53;11.60;99.90
8436;DHT22;4255;48.730;9.156;2023-11-21T09:58:20;11.70;99.90
8436;DHT22;4255;48.730;9.156;2023-11-21T10:00:48;11.40;99.90
8436;DHT22;4255;48.730;9.156;2023-11-21T10:03:15;11.30;99.90
8436;DHT22;4255;48.730;9.156;2023-11-21T10:05:45;11.00;99.90
8436;DHT22;4255;48.730;9.156;2023-11-21T10:08:13;11.10;99.90
8436;DHT22;4255;48.730;9.156;2023-11-21T10:10:47;11.10;99.90
8436;DHT22;4255;48.730;9.156;2023-11-21T10:13:14;11.20;99.90
8436;DHT22;4255;48.730;9.156;2023-11-21T10:15:43;11.30;99.90
8436;DHT22;4255;48.730;9.156;2023-11-21T10:18:14;11.30;99.90
8436;DHT22;4255;48.730;9.156;2023-11-21T10:20:49;11.40;99.90
8436;DHT22;4255;48.730;9.156;2023-11-21T10:23:19;11.70;99.90
8436;DHT22;4255;48.730;9.156;2023-11-21T10:25:46;11.70;99.90
8436;DHT22;4255;48.730;9.156;2023-11-21T10:28:12;11.70;99.90
8436;DHT22;4255;48.730;9.156;2023-11-21T10:30:38;11.70;99.90
8436;DHT22;4255;48.730;9.156;2023-11-21T10:33:07;11.30;99.90
8436;DHT22;4255;48.730;9.156;2023-11-21T10:38:07;11.40;99.90
8436;DHT22;4255;48.730;9.156;2023-11-21T10:40:38;11.40;99.90
8436;DHT22;4255;48.730;9.156;2023-11-21T10:43:08;11.30;99.90
8436;DHT22;4255;48.730;9.156;2023-11-21T10:45:35;11.40;99.90
8436;DHT22;4255;48.730;9.156;2023-11-21T10:48:08;11.30;99.90
8436;DHT22;4255;48.730;9.156;2023-11-21T10:50:35;11.40;99.90
8436;DHT22;4255;48.730;9.156;2023-11-21T10:53:02;11.40;99.90
8436;DHT22;4255;48.730;9.156;2023-11-21T10:55:29;11.20;99.90
8436;DHT22;4255;48.730;9.156;2023-11-21T10:57:57;11.10;99.90
8436;DHT22;4255;48.730;9.156;2023-11-21T11:00:24;11.10;99.90
8436;DHT22;4255;48.730;9.156;2023-11-21T11:02:52;11.30;99.90
8436;DHT22;4255;48.730;9.156;2023-11-21T11:05:21;11.30;99.90
8436;DHT22;4255;48.730;9.156;2023-11-21T11:07:52;11.50;99.90
8436;DHT22;4255;48.730;9.156;2023-11-21T11:10:25;11.60;99.90
8436;DHT22;4255;48.730;9.156;2023-11-21T11:12:56;11.70;99.90
8436;DHT22;4255;48.730;9.156;2023-11-21T11:15:26;11.70;99.90
8436;DHT22;4255;48.730;9.156;2023-11-21T11:17:53;11.70;99.90
8436;DHT22;4255;48.730;9.156;2023-11-21T11:20:27;11.70;99.90
8436;DHT22;4255;48.730;9.156;2023-11-21T11:22:59;11.70;99.90
8436;DHT22;4255;48.730;9.156;2023-11-21T11:28:47;11.40;99.90
8436;DHT22;4255;48.730;9.156;2023-11-21T11:37:02;11.20;99.90
8436;DHT22;4255;48.730;9.156;2023-11-21T11:39:40;11.40;99.90
8436;DHT22;4255;48.730;9.156;2023-11-21T11:42:16;11.40;99.90
8436;DHT22;4255;48.730;9.156;2023-11-21T11:47:15;11.30;99.90
8436;DHT22;4255;48.730;9.156;2023-11-21T11:50:08;11.10;99.90
8436;DHT22;4255;48.730;9.156;2023-11-21T11:52:47;10.80;99.90
8436;DHT22;4255;48.730;9.156;2023-11-21T11:55:13;10.80;99.90
8436;DHT22;4255;48.730;9.156;2023-11-21T11:57:40;10.80;99.90
8436;DHT22;4255;48.730;9.156;2023-11-21T12:02:42;11.10;99.90
8436;DHT22;4255;48.730;9.156;2023-11-21T12:05:20;11.10;99.90
8436;DHT22;4255;48.730;9.156;2023-11-21T12:07:50;11.20;99.90
8436;DHT22;4255;48.730;9.156;2023-11-21T12:10:22;11.40;99.90
8436;DHT22;4255;48.730;9.156;2023-11-21T12:12:52;11.60;99.90
8436;DHT22;4255;48.730;9.156;2023-11-21T12:15:18;11.70;99.90
8436;DHT22;4255;48.730;9.156;2023-11-21T12:17:45;11.80;99.90
8436;DHT22;4255;48.730;9.156;2023-11-21T12:20:12;11.90;99.90
8436;DHT22;4255;48.730;9.156;2023-11-21T12:22:50;11.90;99.90
8436;DHT22;4255;48.730;9.156;2023-11-21T12:27:44;11.80;99.90
8436;DHT22;4255;48.730;9.156;2023-11-21T12:30:11;11.90;99.90
8436;DHT22;4255;48.730;9.156;2023-11-21T12:32:43;11.80;99.90
8436;DHT22;4255;48.730;9.156;2023-11-21T12:35:12;12.00;99.90
8436;DHT22;4255;48.730;9.156;2023-11-21T12:37:39;12.00;99.90
8436;DHT22;4255;48.730;9.156;2023-11-21T12:40:09;12.00;99.90
8436;DHT22;4255;48.730;9.156;2023-11-21T12:42:39;12.20;99.90
8436;DHT22;4255;48.730;9.156;2023-11-21T12:45:08;12.10;99.90
8436;DHT22;4255;48.730;9.156;2023-11-21T12:47:39;12.10;99.90
8436;DHT22;4255;48.730;9.156;2023-11-21T12:50:05;11.80;99.90
8436;DHT22;4255;48.730;9.156;2023-11-21T12:52:32;11.80;99.90
8436;DHT22;4255;48.730;9.156;2023-11-21T12:54:58;11.80;99.90
8436;DHT22;4255;48.730;9.156;2023-11-21T12:57:27;11.70;99.90
8436;DHT22;4255;48.730;9.156;2023-11-21T12:59:57;11.80;99.90
8436;DHT22;4255;48.730;9.156;2023-11-21T13:02:26;11.70;99.90
8436;DHT22;4255;48.730;9.156;2023-11-21T13:04:52;11.30;99.90
8436;DHT22;4255;48.730;9.156;2023-11-21T13:07:19;11.30;99.90
8436;DHT22;4255;48.730;9.156;2023-11-21T13:09:45;11.10;99.90
8436;DHT22;4255;48.730;9.156;2023-11-21T13:12:11;10.90;99.90
8436;DHT22;4255;48.730;9.156;2023-11-21T13:14:39;10.70;99.90
8436;DHT22;4255;48.730;9.156;2023-11-21T13:17:05;10.60;99.90
8436;DHT22;4255;48.730;9.156;2023-11-21T13:19:31;10.60;99.90
8436;DHT22;4255;48.730;9.156;2023-11-21T13:21:56;10.70;99.90
8436;DHT22;4255;48.730;9.156;2023-11-21T13:24:24;10.70;99.90
8436;DHT22;4255;48.730;9.156;2023-11-21T13:26:50;10.70;99.90
8436;DHT22;4255;48.730;9.156;2023-11-21T13:29:16;10.60;99.90
8436;DHT22;4255;48.730;9.156;2023-11-21T13:31:42;10.80;99.90
8436;DHT22;4255;48.730;9.156;2023-11-21T13:34:07;10.70;99.90
8436;DHT22;4255;48.730;9.156;2023-11-21T13:36:34;10.70;99.90
8436;DHT22;4255;48.730;9.156;2023-11-21T13:39:00;10.60;99.90
8436;DHT22;4255;48.730;9.156;2023-11-21T13:41:33;10.70;99.90
8436;DHT22;4255;48.730;9.156;2023-11-21T13:43:59;10.40;99.90
8436;DHT22;4255;48.730;9.156;2023-11-21T13:46:44;10.20;99.90
8436;DHT22;4255;48.730;9.156;2023-11-21T13:49:11;10.00;99.90
8436;DHT22;4255;48.730;9.156;2023-11-21T13:51:37;9.90;99.90
8436;DHT22;4255;48.730;9.156;2023-11-21T13:54:11;10.10;99.90
8436;DHT22;4255;48.730;9.156;2023-11-21T13:56:36;10.00;99.90
8436;DHT22;4255;48.730;9.156;2023-11-21T13:59:02;10.10;99.90
8436;DHT22;4255;48.730;9.156;2023-11-21T14:01:50;9.90;99.90
8436;DHT22;4255;48.730;9.156;2023-11-21T14:04:25;10.30;99.90
8436;DHT22;4255;48.730;9.156;2023-11-21T14:07:04;10.40;99.90
8436;DHT22;4255;48.730;9.156;2023-11-21T14:09:46;10.40;99.90
8436;DHT22;4255;48.730;9.156;2023-11-21T14:12:12;10.50;99.90
8436;DHT22;4255;48.730;9.156;2023-11-21T14:14:38;10.30;99.90
8436;DHT22;4255;48.730;9.156;2023-11-21T14:17:04;10.20;99.90
8436;DHT22;4255;48.730;9.156;2023-11-21T14:19:32;10.00;99.90
8436;DHT22;4255;48.730;9.156;2023-11-21T14:21:59;9.90;99.90
8436;DHT22;4255;48.730;9.156;2023-11-21T14:24:25;9.70;99.90
8436;DHT22;4255;48.730;9.156;2023-11-21T14:26:51;9.60;99.90
8436;DHT22;4255;48.730;9.156;2023-11-21T14:29:17;9.70;99.90
8436;DHT22;4255;48.730;9.156;2023-11-21T14:31:46;9.80;99.90
8436;DHT22;4255;48.730;9.156;2023-11-21T14:34:11;9.80;99.90
8436;DHT22;4255;48.730;9.156;2023-11-21T14:36:39;9.70;99.90
8436;DHT22;4255;48.730;9.156;2023-11-21T14:39:05;9.70;99.90
8436;DHT22;4255;48.730;9.156;2023-11-21T14:41:35;9.70;99.90
8436;DHT22;4255;48.730;9.156;2023-11-21T14:44:02;9.70;99.90
8436;DHT22;4255;48.730;9.156;2023-11-21T14:46:29;9.60;99.90
8436;DHT22;4255;48.730;9.156;2023-11-21T14:48:55;9.60;99.90
8436;DHT22;4255;48.730;9.156;2023-11-21T14:51:47;9.60;99.90
8436;DHT22;4255;48.730;9.156;2023-11-21T14:54:29;9.70;99.90
8436;DHT22;4255;48.730;9.156;2023-11-21T14:57:12;9.70;99.90
8436;DHT22;4255;48.730;9.156;2023-11-21T14:59:46;9.80;99.90
8436;DHT22;4255;48.730;9.156;2023-11-21T15:02:14;9.80;99.90
8436;DHT22;4255;48.730;9.156;2023-11-21T15:04:43;9.90;99.90
8436;DHT22;4255;48.730;9.156;2023-11-21T15:07:09;10.00;99.90
8436;DHT22;4255;48.730;9.156;2023-11-21T15:09:37;10.00;99.90
8436;DHT22;4255;48.730;9.156;2023-11-21T15:12:11;10.00;99.90
8436;DHT22;4255;48.730;9.156;2023-11-21T15:14:51;10.10;99.90
8436;DHT22;4255;48.730;9.156;2023-11-21T15:17:20;10.00;99.90
8436;DHT22;4255;48.730;9.156;2023-11-21T15:19:51;9.80;99.90
8436;DHT22;4255;48.730;9.156;2023-11-21T15:22:17;9.80;99.90
8436;DHT22;4255;48.730;9.156;2023-11-21T15:24:43;9.70;99.90
8436;DHT22;4255;48.730;9.156;2023-11-21T15:27:12;9.70;99.90
8436;DHT22;4255;48.730;9.156;2023-11-21T15:29:40;9.80;99.90
8436;DHT22;4255;48.730;9.156;2023-11-21T15:32:07;9.70;99.90
8436;DHT22;4255;48.730;9.156;2023-11-21T15:34:34;9.60;99.90
8436;DHT22;4255;48.730;9.156;2023-11-21T15:37:00;9.70;99.90
8436;DHT22;4255;48.730;9.156;2023-11-21T15:39:25;9.60;99.90
8436;DHT22;4255;48.730;9.156;2023-11-21T15:41:58;9.70;99.90
8436;DHT22;4255;48.730;9.156;2023-11-21T15:44:25;9.50;99.90
8436;DHT22;4255;48.730;9.156;2023-11-21T15:46:52;9.50;99.90
8436;DHT22;4255;48.730;9.156;2023-11-21T15:49:18;9.30;99.90
8436;DHT22;4255;48.730;9.156;2023-11-21T15:51:47;9.20;99.90
8436;DHT22;4255;48.730;9.156;2023-11-21T15:54:18;9.30;99.90
8436;DHT22;4255;48.730;9.156;2023-11-21T15:56:46;9.40;99.90
8436;DHT22;4255;48.730;9.156;2023-11-21T15:59:11;9.50;99.90
8436;DHT22;4255;48.730;9.156;2023-11-21T16:01:37;9.40;99.90
8436;DHT22;4255;48.730;9.156;2023-11-21T16:04:11;9.40;99.90
8436;DHT22;4255;48.730;9.156;2023-11-21T16:06:39;9.40;99.90
8436;DHT22;4255;48.730;9.156;2023-11-21T16:09:08;9.50;99.90
8436;DHT22;4255;48.730;9.156;2023-11-21T16:11:46;9.60;99.90
8436;DHT22;4255;48.730;9.156;2023-11-21T16:14:11;9.70;99.90
8436;DHT22;4255;48.730;9.156;2023-11-21T16:16:37;9.70;99.90
8436;DHT22;4255;48.730;9.156;2023-11-21T16:19:03;9.60;99.90
8436;DHT22;4255;48.730;9.156;2023-11-21T16:21:28;9.80;99.90
8436;DHT22;4255;48.730;9.156;2023-11-21T16:23:54;9.70;99.90
8436;DHT22;4255;48.730;9.156;2023-11-21T16:26:20;9.60;99.90
8436;DHT22;4255;48.730;9.156;2023-11-21T16:28:46;9.70;99.90
8436;DHT22;4255;48.730;9.156;2023-11-21T16:31:11;9.60;99.90
8436;DHT22;4255;48.730;9.156;2023-11-21T16:33:37;9.70;99.90